Time;durP1;ratioP1;P1;durP2;ratioP2;P2;SDS_P1;SDS_P2;PMS_P1;PMS_P2;Temp;Humidity;BMP_temperature;BMP_pressure;BME280_temperature;BME280_humidity;BME280_pressure;Samples;Min_cycle;Max_cycle;Signal;HPM_P1;HPM_P2
2024/01/15 00:00:53;;;;;;;42.88;15.40;;;;;;;;;;10450047;28;20532;-75
2024/01/15 00:05:54;;;;;;;43.40;16.13;;;;;;;;;;10447185;28;20051;-74
2024/01/15 00:10:54;;;;;;;41.05;16.50;;;;;;;;;;10451790;28;20048;-74
2024/01/15 00:15:55;;;;;;;48.50;16.33;;;;;;;;;;10450263;28;20493;-74
2024/01/15 00:20:55;;;;;;;47.88;17.23;;;;;;;;;;10429453;28;20960;-73
2024/01/15 00:25:55;;;;;;;42.67;16.23;;;;;;;;;;10451321;28;20040;-75
2024/01/15 00:30:56;;;;;;;39.83;16.00;;;;;;;;;;10457744;28;20044;-76
2024/01/15 00:35:56;;;;;;;41.80;15.85;;;;;;;;;;10460358;28;20086;-75
2024/01/15 00:40:57;;;;;;;44.08;16.60;;;;;;;;;;10460713;28;20040;-74
2024/01/15 00:45:57;;;;;;;39.45;15.80;;;;;;;;;;10435542;28;20045;-76
2024/01/15 00:50:57;;;;;;;44.67;15.87;;;;;;;;;;10438386;28;20092;-75
2024/01/15 00:55:58;;;;;;;42.20;16.07;;;;;;;;;;10455665;28;20318;-76
2024/01/15 01:00:58;;;;;;;42.83;16.70;;;;;;;;;;10432759;28;20325;-76
2024/01/15 01:05:58;;;;;;;42.37;15.63;;;;;;;;;;10446053;28;20784;-76
2024/01/15 01:10:59;;;;;;;41.70;15.90;;;;;;;;;;10438787;28;20072;-74
2024/01/15 01:15:59;;;;;;;39.42;14.60;;;;;;;;;;10461240;28;21266;-75
2024/01/15 01:21:00;;;;;;;43.07;15.20;;;;;;;;;;10465875;28;20512;-75
2024/01/15 01:26:01;;;;;;;47.88;16.83;;;;;;;;;;10468754;28;20392;-75
2024/01/15 01:31:02;;;;;;;38.97;15.23;;;;;;;;;;10449757;28;20138;-77
2024/01/15 01:36:06;;;;;;;40.80;14.85;;;;;;;;;;10439793;28;20153;-74
2024/01/15 01:41:07;;;;;;;42.22;15.32;;;;;;;;;;10461332;28;20036;-76
2024/01/15 01:46:07;;;;;;;47.60;16.67;;;;;;;;;;10458644;28;20056;-75
2024/01/15 01:51:08;;;;;;;36.63;15.55;;;;;;;;;;10456395;28;20326;-76
2024/01/15 01:56:09;;;;;;;47.35;17.27;;;;;;;;;;10458089;28;20533;-75
2024/01/15 02:01:09;;;;;;;42.20;16.38;;;;;;;;;;10435962;28;20448;-75
2024/01/15 02:06:10;;;;;;;40.17;16.77;;;;;;;;;;10457501;28;20041;-77
2024/01/15 02:11:10;;;;;;;48.17;17.20;;;;;;;;;;10459691;28;20144;-78
2024/01/15 02:16:11;;;;;;;42.08;16.52;;;;;;;;;;10467518;28;20690;-77
2024/01/15 02:21:11;;;;;;;44.07;16.40;;;;;;;;;;10459621;28;20362;-76
2024/01/15 02:26:12;;;;;;;37.10;15.30;;;;;;;;;;10474005;28;20299;-76
2024/01/15 02:31:12;;;;;;;45.47;17.33;;;;;;;;;;10476202;28;20079;-74
2024/01/15 02:36:13;;;;;;;38.13;15.52;;;;;;;;;;10465350;28;20047;-76
2024/01/15 02:41:14;;;;;;;40.08;16.55;;;;;;;;;;10457285;28;20087;-76
2024/01/15 02:46:16;;;;;;;40.58;14.48;;;;;;;;;;10454012;28;20048;-74
2024/01/15 02:51:16;;;;;;;46.00;15.70;;;;;;;;;;10455599;28;20434;-75
2024/01/15 02:56:16;;;;;;;44.77;17.43;;;;;;;;;;10438615;28;20033;-74
2024/01/15 03:01:18;;;;;;;46.30;17.13;;;;;;;;;;10450361;28;20329;-74
2024/01/15 03:06:18;;;;;;;44.90;15.80;;;;;;;;;;10453250;28;20664;-75
2024/01/15 03:11:19;;;;;;;39.10;15.63;;;;;;;;;;10453976;28;20044;-74
2024/01/15 03:16:19;;;;;;;38.63;16.13;;;;;;;;;;10449330;28;20299;-75
2024/01/15 03:21:20;;;;;;;43.30;16.25;;;;;;;;;;10442964;28;20040;-75
2024/01/15 03:26:20;;;;;;;40.03;15.50;;;;;;;;;;10437078;28;20071;-74
2024/01/15 03:31:21;;;;;;;38.35;15.85;;;;;;;;;;10442872;28;20350;-75
2024/01/15 03:36:21;;;;;;;38.45;15.55;;;;;;;;;;10449812;28;20048;-76
2024/01/15 03:41:21;;;;;;;40.30;15.10;;;;;;;;;;10445158;28;20707;-75
2024/01/15 03:46:22;;;;;;;37.23;14.23;;;;;;;;;;10441735;28;20337;-75
2024/01/15 03:51:23;;;;;;;38.60;15.43;;;;;;;;;;10452653;28;20306;-75
2024/01/15 03:56:23;;;;;;;32.58;13.68;;;;;;;;;;10451190;28;20436;-76
2024/01/15 04:01:23;;;;;;;33.00;14.40;;;;;;;;;;10431464;28;20729;-75
2024/01/15 04:06:24;;;;;;;31.63;13.05;;;;;;;;;;10450227;28;20040;-77
2024/01/15 04:11:24;;;;;;;36.13;12.95;;;;;;;;;;10449844;28;20595;-74
2024/01/15 04:16:26;;;;;;;30.55;13.27;;;;;;;;;;10442839;28;20497;-73
2024/01/15 04:21:26;;;;;;;30.02;12.60;;;;;;;;;;10463133;28;20036;-76
2024/01/15 04:26:26;;;;;;;25.65;12.32;;;;;;;;;;10453116;28;20085;-74
2024/01/15 04:31:27;;;;;;;29.80;12.43;;;;;;;;;;10449959;28;20049;-75
2024/01/15 04:36:27;;;;;;;33.57;13.40;;;;;;;;;;10432123;28;20029;-76
2024/01/15 04:41:28;;;;;;;30.85;11.60;;;;;;;;;;10448887;28;20284;-77
2024/01/15 04:46:28;;;;;;;25.80;11.63;;;;;;;;;;10458709;28;20053;-76
2024/01/15 04:51:28;;;;;;;24.87;11.43;;;;;;;;;;10450822;28;20548;-75
2024/01/15 04:56:29;;;;;;;26.75;11.02;;;;;;;;;;10442455;28;20291;-75
2024/01/15 05:01:32;;;;;;;31.80;12.55;;;;;;;;;;10455979;28;20044;-76
2024/01/15 05:06:33;;;;;;;28.55;13.18;;;;;;;;;;10442718;28;20759;-75
2024/01/15 05:11:33;;;;;;;28.67;12.47;;;;;;;;;;10434977;28;20098;-76
2024/01/15 05:16:33;;;;;;;28.20;12.60;;;;;;;;;;10461469;28;20287;-76
2024/01/15 05:21:34;;;;;;;25.10;12.47;;;;;;;;;;10454997;28;20360;-76
2024/01/15 05:26:34;;;;;;;28.63;12.27;;;;;;;;;;10457168;28;20282;-75
2024/01/15 05:31:35;;;;;;;31.90;13.20;;;;;;;;;;10448081;28;20394;-78
2024/01/15 05:36:36;;;;;;;29.13;13.00;;;;;;;;;;10439364;28;20449;-75
2024/01/15 05:41:36;;;;;;;31.83;14.05;;;;;;;;;;10451028;28;20045;-74
2024/01/15 05:46:36;;;;;;;28.60;13.50;;;;;;;;;;10456632;28;20059;-75
2024/01/15 05:51:37;;;;;;;33.38;13.52;;;;;;;;;;10449827;28;20383;-77
2024/01/15 05:56:37;;;;;;;27.02;12.40;;;;;;;;;;10457229;28;20800;-77
2024/01/15 06:01:38;;;;;;;28.17;12.32;;;;;;;;;;10451210;28;20036;-75
2024/01/15 06:06:38;;;;;;;29.85;12.75;;;;;;;;;;10463016;28;20031;-80
2024/01/15 06:11:38;;;;;;;32.22;13.18;;;;;;;;;;10510524;28;20025;-80
2024/01/15 06:16:39;;;;;;;33.05;13.55;;;;;;;;;;10477653;28;20034;-77
2024/01/15 06:21:39;;;;;;;26.83;12.80;;;;;;;;;;10450732;28;20037;-77
2024/01/15 06:26:40;;;;;;;33.25;13.55;;;;;;;;;;10462523;28;20036;-78
2024/01/15 06:31:40;;;;;;;30.17;14.03;;;;;;;;;;10457659;28;20055;-76
2024/01/15 06:36:40;;;;;;;35.88;13.35;;;;;;;;;;10452692;28;20287;-77
2024/01/15 06:41:43;;;;;;;29.77;13.85;;;;;;;;;;10450593;28;20049;-78
2024/01/15 06:46:43;;;;;;;29.95;12.98;;;;;;;;;;10446969;28;20045;-75
2024/01/15 06:51:44;;;;;;;29.25;12.50;;;;;;;;;;10452069;28;20041;-76
2024/01/15 06:56:44;;;;;;;29.23;11.63;;;;;;;;;;10454796;28;20032;-76
2024/01/15 07:01:45;;;;;;;27.33;11.47;;;;;;;;;;10457327;28;20036;-75
2024/01/15 07:06:45;;;;;;;32.65;14.57;;;;;;;;;;10458806;28;20286;-76
2024/01/15 07:11:46;;;;;;;24.55;11.82;;;;;;;;;;10470121;28;20432;-75
2024/01/15 07:16:46;;;;;;;26.95;11.63;;;;;;;;;;10465256;28;20029;-76
2024/01/15 07:21:47;;;;;;;31.58;12.23;;;;;;;;;;10457275;28;20063;-77
2024/01/15 07:26:47;;;;;;;29.87;12.03;;;;;;;;;;10454358;28;20113;-75
2024/01/15 07:31:49;;;;;;;25.07;11.27;;;;;;;;;;10451316;28;20317;-78
2024/01/15 07:36:49;;;;;;;22.10;10.60;;;;;;;;;;10442454;28;20295;-75
2024/01/15 07:41:50;;;;;;;25.70;10.50;;;;;;;;;;10445438;28;20063;-75
2024/01/15 07:46:51;;;;;;;24.90;11.43;;;;;;;;;;10436963;28;20299;-75
2024/01/15 07:51:51;;;;;;;24.15;9.98;;;;;;;;;;10459823;28;20040;-77
2024/01/15 07:56:59;;;;;;;28.98;11.38;;;;;;;;;;10453457;28;20037;-74
2024/01/15 08:01:59;;;;;;;33.47;12.32;;;;;;;;;;10441655;28;20175;-74
2024/01/15 08:06:59;;;;;;;29.47;12.30;;;;;;;;;;10445110;28;20044;-74
2024/01/15 08:12:00;;;;;;;25.75;10.95;;;;;;;;;;10458426;28;20314;-75
2024/01/15 08:17:01;;;;;;;26.83;11.35;;;;;;;;;;10448412;28;20115;-73
2024/01/15 08:22:02;;;;;;;25.67;12.27;;;;;;;;;;10455612;28;20047;-75
2024/01/15 08:27:02;;;;;;;24.58;11.05;;;;;;;;;;10436105;28;20048;-74
2024/01/15 08:32:02;;;;;;;27.63;11.43;;;;;;;;;;10451004;28;20072;-74
2024/01/15 08:37:03;;;;;;;24.83;10.35;;;;;;;;;;10453453;28;20089;-74
2024/01/15 08:42:04;;;;;;;23.10;10.68;;;;;;;;;;10445201;28;20032;-76
2024/01/15 08:47:04;;;;;;;23.15;11.55;;;;;;;;;;10455934;28;20773;-76
2024/01/15 08:52:05;;;;;;;23.20;11.02;;;;;;;;;;10439704;28;20044;-74
2024/01/15 08:57:05;;;;;;;23.73;11.00;;;;;;;;;;10449104;28;20039;-77
2024/01/15 09:02:05;;;;;;;23.17;10.77;;;;;;;;;;10471470;28;20060;-77
2024/01/15 09:07:05;;;;;;;21.37;10.90;;;;;;;;;;10465193;28;20315;-75
2024/01/15 09:12:06;;;;;;;24.47;11.67;;;;;;;;;;10464085;28;20048;-75
2024/01/15 09:17:06;;;;;;;26.88;11.98;;;;;;;;;;10461364;28;20294;-75
2024/01/15 09:22:07;;;;;;;26.67;12.13;;;;;;;;;;10458788;28;20117;-76
2024/01/15 09:27:07;;;;;;;24.67;10.85;;;;;;;;;;10457703;28;20271;-75
2024/01/15 09:32:07;;;;;;;25.67;12.67;;;;;;;;;;10458076;28;20098;-76
2024/01/15 09:37:08;;;;;;;23.70;10.43;;;;;;;;;;10441709;28;20353;-74
2024/01/15 09:42:08;;;;;;;23.92;11.52;;;;;;;;;;10461894;28;20361;-76
2024/01/15 09:47:09;;;;;;;22.80;10.07;;;;;;;;;;10460221;28;20029;-75
2024/01/15 09:52:10;;;;;;;23.35;11.10;;;;;;;;;;10464619;28;20048;-76
2024/01/15 09:57:11;;;;;;;20.63;10.68;;;;;;;;;;10442726;28;20541;-75
2024/01/15 10:02:14;;;;;;;22.35;10.65;;;;;;;;;;10441363;28;20028;-74
2024/01/15 10:07:16;;;;;;;24.23;10.18;;;;;;;;;;10434336;28;20033;-75
2024/01/15 10:12:16;;;;;;;28.38;11.95;;;;;;;;;;10461701;28;20048;-73
2024/01/15 10:17:17;;;;;;;23.27;10.55;;;;;;;;;;10465425;28;20028;-75
2024/01/15 10:22:17;;;;;;;21.08;11.10;;;;;;;;;;10413664;28;20037;-75
2024/01/15 10:27:18;;;;;;;20.75;10.52;;;;;;;;;;10439014;28;20116;-76
2024/01/15 10:32:18;;;;;;;22.48;10.63;;;;;;;;;;10433751;28;20112;-73
2024/01/15 10:37:19;;;;;;;21.83;11.15;;;;;;;;;;10461409;28;20037;-74
2024/01/15 10:42:19;;;;;;;23.17;10.57;;;;;;;;;;10451312;28;20055;-76
2024/01/15 10:47:20;;;;;;;22.05;9.30;;;;;;;;;;10459597;28;20077;-75
2024/01/15 10:52:21;;;;;;;19.25;10.15;;;;;;;;;;10456282;28;20048;-74
2024/01/15 10:57:22;;;;;;;18.50;9.27;;;;;;;;;;10464321;28;20124;-74
2024/01/15 11:02:22;;;;;;;19.98;11.02;;;;;;;;;;10452570;28;20036;-75
2024/01/15 11:07:23;;;;;;;17.05;10.02;;;;;;;;;;10453266;28;20563;-74
2024/01/15 11:12:24;;;;;;;18.45;9.75;;;;;;;;;;10447998;28;20079;-75
2024/01/15 11:17:26;;;;;;;19.33;9.90;;;;;;;;;;10441207;28;20619;-77
2024/01/15 11:22:29;;;;;;;21.88;10.43;;;;;;;;;;10453833;28;20066;-76
2024/01/15 11:27:30;;;;;;;;;;;;;;;;;;10450600;28;20386;-75
2024/01/15 11:32:33;;;;;;;20.20;10.67;;;;;;;;;;10444593;28;19924;-76
2024/01/15 11:37:33;;;;;;;;;;;;;;;;;;10448513;28;20659;-79
2024/01/15 11:42:34;;;;;;;23.48;10.73;;;;;;;;;;10427823;28;19917;-78
2024/01/15 11:47:53;;;;;;;18.23;9.65;;;;;;;;;;10462949;28;20044;-78
2024/01/15 11:53:01;;;;;;;16.33;9.45;;;;;;;;;;10453386;28;20171;-76
2024/01/15 11:58:02;;;;;;;19.80;9.73;;;;;;;;;;10457610;28;20124;-75
2024/01/15 12:03:04;;;;;;;20.42;9.48;;;;;;;;;;10457418;28;20028;-76
2024/01/15 12:08:11;;;;;;;17.25;9.55;;;;;;;;;;10452532;28;20032;-76
2024/01/15 12:13:15;;;;;;;18.35;9.57;;;;;;;;;;10456291;28;20040;-77
2024/01/15 12:18:18;;;;;;;20.27;10.73;;;;;;;;;;10435314;28;20036;-75
2024/01/15 12:23:18;;;;;;;18.48;9.68;;;;;;;;;;10451557;28;20028;-76
2024/01/15 12:28:18;;;;;;;19.93;9.13;;;;;;;;;;10462071;28;20036;-75
2024/01/15 12:33:21;;;;;;;17.53;8.67;;;;;;;;;;10448606;28;20401;-75
2024/01/15 12:38:22;;;;;;;13.35;9.30;;;;;;;;;;10439915;28;20159;-75
2024/01/15 12:43:22;;;;;;;14.77;9.20;;;;;;;;;;10420627;28;20041;-75
2024/01/15 12:48:22;;;;;;;16.33;9.27;;;;;;;;;;10443389;28;20330;-74
2024/01/15 12:53:23;;;;;;;14.93;9.27;;;;;;;;;;10444035;28;21012;-74
2024/01/15 12:58:23;;;;;;;16.43;9.87;;;;;;;;;;10449826;28;20289;-74
2024/01/15 13:03:23;;;;;;;20.40;9.80;;;;;;;;;;10433315;28;20286;-73
2024/01/15 13:08:26;;;;;;;18.13;9.90;;;;;;;;;;10434094;28;20342;-75
2024/01/15 13:13:27;;;;;;;14.60;8.73;;;;;;;;;;10447151;28;20045;-73
2024/01/15 13:18:27;;;;;;;15.13;9.38;;;;;;;;;;10450510;28;20037;-77
2024/01/15 13:23:28;;;;;;;16.30;8.97;;;;;;;;;;10457315;28;20037;-73
2024/01/15 13:28:28;;;;;;;14.37;9.47;;;;;;;;;;10457259;28;20368;-74
2024/01/15 13:33:28;;;;;;;15.90;8.70;;;;;;;;;;10445723;28;20118;-74
2024/01/15 13:38:34;;;;;;;15.30;8.55;;;;;;;;;;10463432;28;20297;-75
2024/01/15 13:43:34;;;;;;;16.98;9.07;;;;;;;;;;10451519;28;20175;-76
2024/01/15 13:48:35;;;;;;;14.85;7.95;;;;;;;;;;10443781;28;20483;-78
2024/01/15 13:53:36;;;;;;;18.25;9.60;;;;;;;;;;10450422;28;20048;-78
2024/01/15 13:58:37;;;;;;;13.10;7.45;;;;;;;;;;10459528;28;20037;-74
2024/01/15 14:03:37;;;;;;;13.73;8.75;;;;;;;;;;10454479;28;20029;-76
2024/01/15 14:08:37;;;;;;;14.77;8.90;;;;;;;;;;10434652;28;20116;-77
2024/01/15 14:13:38;;;;;;;12.63;7.10;;;;;;;;;;10452849;28;20303;-75
2024/01/15 14:18:38;;;;;;;11.27;6.33;;;;;;;;;;10462071;28;20043;-77
2024/01/15 14:23:38;;;;;;;14.17;8.17;;;;;;;;;;10461663;28;20348;-78
2024/01/15 14:28:39;;;;;;;11.35;7.05;;;;;;;;;;10429442;28;20312;-79
2024/01/15 14:33:39;;;;;;;11.20;6.40;;;;;;;;;;10456560;28;20053;-77
2024/01/15 14:38:39;;;;;;;11.57;5.97;;;;;;;;;;10456964;28;20289;-75
2024/01/15 14:43:40;;;;;;;9.97;6.90;;;;;;;;;;10433283;28;20052;-81
2024/01/15 14:48:40;;;;;;;8.17;5.97;;;;;;;;;;10450922;28;20299;-75
2024/01/15 14:53:40;;;;;;;9.73;6.30;;;;;;;;;;10455756;28;20040;-76
2024/01/15 14:58:41;;;;;;;12.93;6.87;;;;;;;;;;10436924;28;20051;-78
2024/01/15 15:03:41;;;;;;;9.60;6.37;;;;;;;;;;10438306;28;20043;-77
2024/01/15 15:08:42;;;;;;;12.13;7.20;;;;;;;;;;10457468;28;20659;-77
2024/01/15 15:13:42;;;;;;;13.63;7.40;;;;;;;;;;10452608;28;20044;-77
2024/01/15 15:18:43;;;;;;;12.55;6.47;;;;;;;;;;10450372;28;20397;-78
2024/01/15 15:23:43;;;;;;;13.52;7.07;;;;;;;;;;10450497;28;20068;-75
2024/01/15 15:28:44;;;;;;;9.90;6.65;;;;;;;;;;10453417;28;20394;-75
2024/01/15 15:33:44;;;;;;;11.90;7.20;;;;;;;;;;10449809;28;20048;-74
2024/01/15 15:38:45;;;;;;;12.23;7.07;;;;;;;;;;10448016;28;20765;-74
2024/01/15 15:43:45;;;;;;;14.03;7.80;;;;;;;;;;10443685;28;20714;-76
2024/01/15 15:48:45;;;;;;;12.90;6.50;;;;;;;;;;10426211;28;20750;-73
2024/01/15 15:53:46;;;;;;;15.33;7.73;;;;;;;;;;10449185;28;20790;-74
2024/01/15 15:58:46;;;;;;;11.30;7.30;;;;;;;;;;10429375;28;20303;-75
2024/01/15 16:03:46;;;;;;;12.02;6.93;;;;;;;;;;10449360;28;20299;-73
2024/01/15 16:08:47;;;;;;;15.93;9.03;;;;;;;;;;10424738;28;20526;-75
2024/01/15 16:13:47;;;;;;;10.93;6.87;;;;;;;;;;10447775;28;20793;-77
2024/01/15 16:18:47;;;;;;;9.73;6.27;;;;;;;;;;10450959;28;20094;-77
2024/01/15 16:23:48;;;;;;;9.90;6.90;;;;;;;;;;10450426;28;20141;-77
2024/01/15 16:28:48;;;;;;;11.03;6.67;;;;;;;;;;10429979;28;21137;-72
2024/01/15 16:33:48;;;;;;;11.30;6.63;;;;;;;;;;10463657;28;20310;-79
2024/01/15 16:38:48;;;;;;;13.40;7.27;;;;;;;;;;10449533;28;20037;-78
2024/01/15 16:43:49;;;;;;;10.10;6.95;;;;;;;;;;10449322;28;20806;-78
